Time;durP1;ratioP1;P1;durP2;ratioP2;P2;SDS_P1;SDS_P2;PMS_P1;PMS_P2;Temp;Humidity;BMP_temperature;BMP_pressure;BME280_temperature;BME280_humidity;BME280_pressure;Samples;Min_cycle;Max_cycle;Signal;HPM_P1;HPM_P2
2023/06/08 00:00:20;;;;;;;4.35;3.95;;;;;;;;;;4944593;28;20476;-54
2023/06/08 00:02:46;;;;;;;6.88;4.30;;;;;;;;;;4942024;28;20095;-52
2023/06/08 00:05:13;;;;;;;4.78;3.97;;;;;;;;;;4944890;28;20039;-46
2023/06/08 00:07:40;;;;;;;4.65;4.22;;;;;;;;;;4946311;28;20050;-47
2023/06/08 00:10:09;;;;;;;4.82;3.95;;;;;;;;;;4945791;28;20028;-47
2023/06/08 00:12:35;;;;;;;6.45;4.40;;;;;;;;;;4944435;28;20515;-51
2023/06/08 00:15:01;;;;;;;5.82;4.30;;;;;;;;;;4945804;28;20031;-48
2023/06/08 00:17:27;;;;;;;7.97;4.40;;;;;;;;;;4944940;28;20035;-47
2023/06/08 00:19:52;;;;;;;4.45;3.92;;;;;;;;;;4946450;28;20023;-49
2023/06/08 00:22:18;;;;;;;6.32;4.07;;;;;;;;;;4947880;28;20047;-51
2023/06/08 00:24:43;;;;;;;4.90;4.50;;;;;;;;;;4943560;28;20139;-50
2023/06/08 00:27:09;;;;;;;5.07;4.40;;;;;;;;;;4950144;28;20129;-47
2023/06/08 00:29:34;;;;;;;4.78;4.38;;;;;;;;;;4944227;28;20031;-48
2023/06/08 00:32:00;;;;;;;6.25;4.78;;;;;;;;;;4947425;28;20044;-51
2023/06/08 00:34:28;;;;;;;4.70;4.40;;;;;;;;;;4949810;28;20027;-51
2023/06/08 00:36:55;;;;;;;5.00;4.45;;;;;;;;;;4946383;28;20035;-49
2023/06/08 00:39:20;;;;;;;4.88;4.47;;;;;;;;;;4945645;28;20039;-53
2023/06/08 00:41:45;;;;;;;6.90;4.75;;;;;;;;;;4946726;28;20373;-51
2023/06/08 00:44:11;;;;;;;10.23;4.78;;;;;;;;;;4945348;28;20041;-49
2023/06/08 00:46:37;;;;;;;6.38;4.57;;;;;;;;;;4946518;28;20047;-47
2023/06/08 00:49:03;;;;;;;4.97;4.57;;;;;;;;;;4946565;28;20042;-49
2023/06/08 00:51:33;;;;;;;4.93;4.40;;;;;;;;;;4945859;28;20039;-47
2023/06/08 00:54:00;;;;;;;6.43;4.40;;;;;;;;;;4947130;28;20536;-50
2023/06/08 00:56:31;;;;;;;6.82;4.68;;;;;;;;;;4942705;28;20492;-50
2023/06/08 00:59:00;;;;;;;5.35;4.88;;;;;;;;;;4943412;28;20036;-47
2023/06/08 01:01:29;;;;;;;5.32;4.50;;;;;;;;;;4938472;28;20448;-47
2023/06/08 01:04:07;;;;;;;5.40;4.90;;;;;;;;;;4924345;28;20028;-49
2023/06/08 01:06:38;;;;;;;5.65;5.03;;;;;;;;;;4946802;28;20055;-46
2023/06/08 01:09:24;;;;;;;4.85;4.45;;;;;;;;;;4943785;28;20043;-51
2023/06/08 01:12:17;;;;;;;7.50;5.00;;;;;;;;;;4946815;28;20046;-47
2023/06/08 01:15:08;;;;;;;5.93;4.80;;;;;;;;;;4941443;28;20077;-46
2023/06/08 01:17:45;;;;;;;6.78;5.30;;;;;;;;;;4943096;28;20047;-49
2023/06/08 01:20:16;;;;;;;6.18;4.97;;;;;;;;;;4947309;28;20043;-44
2023/06/08 01:22:48;;;;;;;5.60;4.78;;;;;;;;;;4937552;28;20074;-50
2023/06/08 01:25:14;;;;;;;5.78;5.15;;;;;;;;;;4940303;28;20046;-48
2023/06/08 01:27:39;;;;;;;6.05;5.18;;;;;;;;;;4944366;28;20032;-47
2023/06/08 01:30:06;;;;;;;6.85;5.10;;;;;;;;;;4943404;28;20543;-46
2023/06/08 01:32:31;;;;;;;5.65;4.90;;;;;;;;;;4944566;28;20048;-46
2023/06/08 01:34:57;;;;;;;5.43;4.93;;;;;;;;;;4944093;28;20082;-53
2023/06/08 01:37:58;;;;;;;6.53;5.00;;;;;;;;;;4944528;28;20428;-47
2023/06/08 01:40:34;;;;;;;7.57;4.80;;;;;;;;;;4890168;29;20459;-47
2023/06/08 01:43:01;;;;;;;9.10;5.53;;;;;;;;;;4884748;29;20037;-47
2023/06/08 01:45:32;;;;;;;5.82;4.90;;;;;;;;;;4888537;29;20032;-48
2023/06/08 01:48:02;;;;;;;6.95;5.50;;;;;;;;;;4888319;29;20041;-46
2023/06/08 01:50:29;;;;;;;5.55;4.93;;;;;;;;;;4887595;29;20539;-48
2023/06/08 01:52:56;;;;;;;5.80;5.28;;;;;;;;;;4886852;29;20772;-48
2023/06/08 01:55:22;;;;;;;7.35;4.90;;;;;;;;;;4889831;29;20186;-49
2023/06/08 01:57:48;;;;;;;9.70;5.20;;;;;;;;;;4888224;29;20044;-47
2023/06/08 02:00:16;;;;;;;5.95;5.32;;;;;;;;;;4889222;29;20048;-48
2023/06/08 02:02:41;;;;;;;8.38;5.35;;;;;;;;;;4888814;29;20108;-47
2023/06/08 02:05:09;;;;;;;8.93;5.22;;;;;;;;;;4889179;29;20081;-48
2023/06/08 02:07:36;;;;;;;7.10;4.40;;;;;;;;;;4891354;29;20163;-47
2023/06/08 02:10:03;;;;;;;5.40;5.00;;;;;;;;;;4886938;29;20040;-51
2023/06/08 02:12:28;;;;;;;7.80;5.30;;;;;;;;;;4887356;29;20128;-50
2023/06/08 02:14:54;;;;;;;5.57;4.93;;;;;;;;;;4892173;29;20115;-51
2023/06/08 02:17:25;;;;;;;5.65;5.00;;;;;;;;;;4941907;28;20055;-49
2023/06/08 02:19:51;;;;;;;9.18;4.80;;;;;;;;;;4941938;28;20625;-51
2023/06/08 02:22:16;;;;;;;9.77;4.97;;;;;;;;;;4946854;28;20047;-47
2023/06/08 02:24:42;;;;;;;6.45;5.18;;;;;;;;;;4943481;28;20472;-49
2023/06/08 02:27:08;;;;;;;6.05;4.97;;;;;;;;;;4943074;28;20063;-50
2023/06/08 02:29:35;;;;;;;5.80;5.10;;;;;;;;;;4944077;28;20484;-46
2023/06/08 02:32:01;;;;;;;7.43;4.88;;;;;;;;;;4946430;28;20039;-47
2023/06/08 02:34:26;;;;;;;5.28;4.78;;;;;;;;;;4943788;28;20031;-47
2023/06/08 02:36:51;;;;;;;6.70;4.57;;;;;;;;;;4943487;28;20492;-52
2023/06/08 02:39:17;;;;;;;5.97;5.15;;;;;;;;;;4939979;28;20275;-51
2023/06/08 02:41:42;;;;;;;6.35;4.80;;;;;;;;;;4942557;28;20389;-48
2023/06/08 02:44:07;;;;;;;6.72;4.40;;;;;;;;;;4944162;28;20101;-47
2023/06/08 02:46:33;;;;;;;5.53;4.97;;;;;;;;;;4941758;28;20063;-51
2023/06/08 02:49:00;;;;;;;5.35;4.93;;;;;;;;;;4943604;28;20034;-51
2023/06/08 02:51:26;;;;;;;6.40;4.75;;;;;;;;;;4939371;28;20055;-52
2023/06/08 02:53:51;;;;;;;5.75;4.78;;;;;;;;;;4943968;28;20396;-54
2023/06/08 02:56:16;;;;;;;5.30;4.80;;;;;;;;;;4946183;28;20082;-51
2023/06/08 02:58:46;;;;;;;6.20;4.78;;;;;;;;;;4944443;28;20031;-49
2023/06/08 03:01:14;;;;;;;5.20;4.63;;;;;;;;;;4941515;28;20134;-47
2023/06/08 03:03:44;;;;;;;6.40;5.07;;;;;;;;;;4940544;28;20028;-48
2023/06/08 03:06:12;;;;;;;6.75;4.47;;;;;;;;;;4941004;28;20388;-50
2023/06/08 03:08:38;;;;;;;5.53;4.90;;;;;;;;;;4945449;28;20023;-46
2023/06/08 03:11:03;;;;;;;6.85;4.68;;;;;;;;;;4944795;28;20079;-47
2023/06/08 03:13:29;;;;;;;6.03;5.07;;;;;;;;;;4944383;28;20055;-49
2023/06/08 03:15:55;;;;;;;5.07;4.65;;;;;;;;;;4940751;28;20039;-50
2023/06/08 03:18:22;;;;;;;5.93;4.78;;;;;;;;;;4942531;28;20050;-46
2023/06/08 03:20:51;;;;;;;5.47;4.97;;;;;;;;;;4941284;28;20159;-50
2023/06/08 03:23:19;;;;;;;6.68;4.30;;;;;;;;;;4945080;28;20067;-53
2023/06/08 03:25:48;;;;;;;7.68;5.15;;;;;;;;;;4941918;28;20492;-51
2023/06/08 03:28:14;;;;;;;7.00;5.15;;;;;;;;;;4943193;28;20493;-47
2023/06/08 03:30:40;;;;;;;5.13;4.53;;;;;;;;;;4946136;28;20030;-49
2023/06/08 03:33:06;;;;;;;7.25;4.80;;;;;;;;;;4942640;28;20035;-48
2023/06/08 03:35:31;;;;;;;5.15;4.65;;;;;;;;;;4938197;28;20043;-54
2023/06/08 03:37:57;;;;;;;5.28;4.75;;;;;;;;;;4944043;28;20048;-47
2023/06/08 03:40:22;;;;;;;4.80;4.40;;;;;;;;;;4939033;28;20580;-50
2023/06/08 03:42:50;;;;;;;4.63;4.22;;;;;;;;;;4944827;28;20039;-47
2023/06/08 03:45:16;;;;;;;6.75;4.70;;;;;;;;;;4943137;28;20395;-46
2023/06/08 03:47:42;;;;;;;5.10;4.60;;;;;;;;;;4941123;28;20051;-46
2023/06/08 03:50:07;;;;;;;7.10;4.82;;;;;;;;;;4941622;28;20015;-49
2023/06/08 03:52:33;;;;;;;5.53;5.03;;;;;;;;;;4942960;28;20070;-47
2023/06/08 03:54:59;;;;;;;10.98;4.80;;;;;;;;;;4940701;28;20376;-51
2023/06/08 03:57:24;;;;;;;6.97;4.82;;;;;;;;;;4939869;28;20039;-47
2023/06/08 03:59:50;;;;;;;8.07;4.50;;;;;;;;;;4942535;28;20110;-46
2023/06/08 04:02:15;;;;;;;5.18;4.68;;;;;;;;;;4947236;28;20521;-47
2023/06/08 04:04:44;;;;;;;6.93;4.78;;;;;;;;;;4943487;28;20047;-47
2023/06/08 04:07:10;;;;;;;5.15;4.75;;;;;;;;;;4944026;28;20964;-47
2023/06/08 04:09:35;;;;;;;5.18;4.68;;;;;;;;;;4941360;28;20023;-47
2023/06/08 04:12:01;;;;;;;5.18;4.55;;;;;;;;;;4948528;28;20043;-49
2023/06/08 04:14:26;;;;;;;5.03;4.57;;;;;;;;;;4942904;28;20046;-53
2023/06/08 04:16:52;;;;;;;6.80;5.10;;;;;;;;;;4943102;28;20047;-53
2023/06/08 04:19:17;;;;;;;5.63;5.03;;;;;;;;;;4941771;28;20499;-51
2023/06/08 04:21:42;;;;;;;7.05;4.50;;;;;;;;;;4942943;28;20098;-51
2023/06/08 04:24:08;;;;;;;4.97;4.50;;;;;;;;;;4943741;28;20550;-49
2023/06/08 04:26:33;;;;;;;4.78;4.38;;;;;;;;;;4944813;28;20141;-48
2023/06/08 04:28:59;;;;;;;5.25;4.72;;;;;;;;;;4947333;28;20030;-48
2023/06/08 04:31:24;;;;;;;5.78;4.90;;;;;;;;;;4943498;28;20047;-46
2023/06/08 04:33:49;;;;;;;5.13;4.63;;;;;;;;;;4942372;28;21483;-47
2023/06/08 04:36:15;;;;;;;5.75;4.88;;;;;;;;;;4942980;28;20130;-48
2023/06/08 04:38:41;;;;;;;5.75;4.75;;;;;;;;;;4947168;28;20035;-54
2023/06/08 04:41:07;;;;;;;5.40;4.72;;;;;;;;;;4945751;28;20057;-50
2023/06/08 04:43:34;;;;;;;6.00;4.88;;;;;;;;;;4947422;28;20039;-48
2023/06/08 04:46:04;;;;;;;4.85;4.32;;;;;;;;;;4944290;28;20459;-47
2023/06/08 04:48:30;;;;;;;4.95;4.55;;;;;;;;;;4940445;28;20110;-53
2023/06/08 04:50:59;;;;;;;5.32;4.82;;;;;;;;;;4938853;28;20052;-48
2023/06/08 04:53:25;;;;;;;5.90;5.10;;;;;;;;;;4943776;28;20122;-49
2023/06/08 04:55:56;;;;;;;7.88;5.05;;;;;;;;;;4947506;28;20031;-47
2023/06/08 04:58:22;;;;;;;7.63;4.80;;;;;;;;;;4943085;28;20083;-52
2023/06/08 05:00:48;;;;;;;5.20;4.70;;;;;;;;;;4941820;28;20055;-52
2023/06/08 05:03:13;;;;;;;7.22;5.38;;;;;;;;;;4943304;28;20118;-51
2023/06/08 05:05:39;;;;;;;5.90;4.90;;;;;;;;;;4942845;28;21024;-51
2023/06/08 05:08:04;;;;;;;11.02;4.88;;;;;;;;;;4943417;28;20039;-47
2023/06/08 05:10:30;;;;;;;9.60;5.22;;;;;;;;;;4945952;28;20102;-46
2023/06/08 05:12:56;;;;;;;8.15;5.10;;;;;;;;;;4942409;28;20047;-46
2023/06/08 05:15:22;;;;;;;11.02;5.25;;;;;;;;;;4944028;28;20046;-49
2023/06/08 05:17:47;;;;;;;7.75;5.00;;;;;;;;;;4942251;28;20102;-52
2023/06/08 05:20:13;;;;;;;7.25;5.10;;;;;;;;;;4940686;28;20041;-49
2023/06/08 05:22:38;;;;;;;5.63;4.80;;;;;;;;;;4938400;28;20505;-47
2023/06/08 05:25:04;;;;;;;7.65;5.43;;;;;;;;;;4942174;28;20131;-46
2023/06/08 05:27:29;;;;;;;4.95;4.50;;;;;;;;;;4945737;28;20688;-48
2023/06/08 05:29:55;;;;;;;7.55;4.68;;;;;;;;;;4938680;28;20031;-48
2023/06/08 05:32:21;;;;;;;12.25;5.30;;;;;;;;;;4941044;28;20032;-49
2023/06/08 05:34:46;;;;;;;7.15;4.80;;;;;;;;;;4942402;28;20043;-52
2023/06/08 05:37:14;;;;;;;6.78;5.15;;;;;;;;;;4942316;28;20051;-47
2023/06/08 05:39:39;;;;;;;6.75;4.70;;;;;;;;;;4946068;28;20046;-53
2023/06/08 05:42:06;;;;;;;4.97;4.57;;;;;;;;;;4942021;28;20035;-52
2023/06/08 05:44:31;;;;;;;5.10;4.60;;;;;;;;;;4940114;28;20059;-53
2023/06/08 05:46:57;;;;;;;5.10;4.65;;;;;;;;;;4941994;28;20114;-51
2023/06/08 05:49:24;;;;;;;8.32;4.65;;;;;;;;;;4942162;28;21592;-46
2023/06/08 05:51:50;;;;;;;10.80;4.53;;;;;;;;;;4944300;28;20554;-49
2023/06/08 05:54:15;;;;;;;4.72;4.32;;;;;;;;;;4946852;28;20019;-52
2023/06/08 05:56:40;;;;;;;6.30;4.18;;;;;;;;;;4946286;28;20031;-46
2023/06/08 05:59:06;;;;;;;6.80;4.43;;;;;;;;;;4946586;28;20030;-49
2023/06/08 06:01:31;;;;;;;10.07;4.53;;;;;;;;;;4943672;28;20057;-50
2023/06/08 06:03:57;;;;;;;6.88;4.47;;;;;;;;;;4942230;28;20563;-49
2023/06/08 06:06:22;;;;;;;5.97;4.63;;;;;;;;;;4940261;28;20596;-46
2023/06/08 06:08:47;;;;;;;4.38;3.85;;;;;;;;;;4942376;28;20024;-47
2023/06/08 06:11:13;;;;;;;6.40;4.40;;;;;;;;;;4940481;28;20034;-47
2023/06/08 06:13:38;;;;;;;4.65;4.18;;;;;;;;;;4942464;28;20086;-51
2023/06/08 06:16:04;;;;;;;4.50;4.13;;;;;;;;;;4943211;28;20102;-52
2023/06/08 06:18:29;;;;;;;7.53;4.30;;;;;;;;;;4946688;28;20055;-50
2023/06/08 06:20:55;;;;;;;5.07;4.38;;;;;;;;;;4940884;28;20074;-53
2023/06/08 06:23:20;;;;;;;4.65;4.05;;;;;;;;;;4943241;28;20043;-51
2023/06/08 06:25:46;;;;;;;4.65;3.80;;;;;;;;;;4943827;28;20030;-53
2023/06/08 06:28:11;;;;;;;7.10;4.35;;;;;;;;;;4942808;28;20047;-49
2023/06/08 06:30:36;;;;;;;4.10;3.70;;;;;;;;;;4946556;28;20491;-51
2023/06/08 06:33:02;;;;;;;3.95;3.63;;;;;;;;;;4942379;28;20453;-48
2023/06/08 06:35:27;;;;;;;5.35;3.72;;;;;;;;;;4943285;28;20118;-51
2023/06/08 06:37:54;;;;;;;5.95;3.83;;;;;;;;;;4946342;28;20066;-49
2023/06/08 06:40:20;;;;;;;4.95;4.45;;;;;;;;;;4937332;28;20050;-48
2023/06/08 06:42:46;;;;;;;6.53;3.97;;;;;;;;;;4946252;28;20180;-49
2023/06/08 06:45:11;;;;;;;4.28;3.85;;;;;;;;;;4942230;28;20039;-46
2023/06/08 06:47:38;;;;;;;9.23;3.47;;;;;;;;;;4942566;28;20102;-51
2023/06/08 06:50:04;;;;;;;3.67;3.38;;;;;;;;;;4943477;28;20028;-53
2023/06/08 06:52:29;;;;;;;6.28;3.95;;;;;;;;;;4941655;28;20408;-49
2023/06/08 06:54:55;;;;;;;3.80;3.50;;;;;;;;;;4946156;28;20031;-52
2023/06/08 06:57:20;;;;;;;3.80;3.50;;;;;;;;;;4947291;28;20709;-54
2023/06/08 06:59:46;;;;;;;3.50;3.22;;;;;;;;;;4939541;28;20529;-51
2023/06/08 07:02:12;;;;;;;3.03;2.83;;;;;;;;;;4942045;28;20125;-54
2023/06/08 07:04:38;;;;;;;3.10;2.90;;;;;;;;;;4947533;28;20023;-50
2023/06/08 07:07:05;;;;;;;3.42;2.75;;;;;;;;;;4940832;28;20035;-48
2023/06/08 07:09:32;;;;;;;3.38;3.10;;;;;;;;;;4940735;28;20043;-46
2023/06/08 07:11:57;;;;;;;3.55;3.25;;;;;;;;;;4943354;28;20067;-48
2023/06/08 07:14:24;;;;;;;4.05;3.05;;;;;;;;;;4941791;28;20069;-47
2023/06/08 07:16:50;;;;;;;3.50;3.20;;;;;;;;;;4943068;28;20453;-49
2023/06/08 07:19:15;;;;;;;4.18;3.33;;;;;;;;;;4945110;28;20039;-49
2023/06/08 07:21:41;;;;;;;3.28;2.97;;;;;;;;;;4944546;28;20035;-50
2023/06/08 07:24:07;;;;;;;3.80;2.95;;;;;;;;;;4942289;28;20058;-51
2023/06/08 07:26:32;;;;;;;3.05;2.85;;;;;;;;;;4942732;28;20039;-48
2023/06/08 07:28:58;;;;;;;4.40;2.78;;;;;;;;;;4944469;28;20034;-46
2023/06/08 07:31:26;;;;;;;2.60;2.40;;;;;;;;;;4943434;28;20047;-52
2023/06/08 07:33:52;;;;;;;5.63;2.80;;;;;;;;;;4944831;28;20055;-49
2023/06/08 07:36:18;;;;;;;3.95;2.92;;;;;;;;;;4945481;28;20031;-50
2023/06/08 07:38:43;;;;;;;3.03;2.83;;;;;;;;;;4949450;28;20435;-53
2023/06/08 07:41:08;;;;;;;6.55;2.83;;;;;;;;;;4948325;28;20027;-54
2023/06/08 07:43:34;;;;;;;3.08;2.83;;;;;;;;;;4949274;28;20082;-55
2023/06/08 07:45:59;;;;;;;5.72;2.97;;;;;;;;;;4949608;28;20058;-53
2023/06/08 07:48:24;;;;;;;3.03;2.83;;;;;;;;;;4950911;28;20036;-47
2023/06/08 07:50:50;;;;;;;2.92;2.63;;;;;;;;;;4943815;28;20504;-49
2023/06/08 07:53:17;;;;;;;5.05;2.45;;;;;;;;;;4942390;28;20480;-47
2023/06/08 07:55:43;;;;;;;3.22;2.78;;;;;;;;;;4948084;28;20050;-50
2023/06/08 07:58:08;;;;;;;4.13;2.60;;;;;;;;;;4946087;28;20532;-49
2023/06/08 08:00:35;;;;;;;5.47;2.70;;;;;;;;;;4946965;28;20042;-48
2023/06/08 08:03:03;;;;;;;4.30;2.95;;;;;;;;;;4945084;28;20062;-47
2023/06/08 08:05:29;;;;;;;2.90;2.70;;;;;;;;;;4945083;28;20392;-50
2023/06/08 08:07:54;;;;;;;3.00;2.70;;;;;;;;;;4948733;28;20035;-52
2023/06/08 08:10:20;;;;;;;5.50;2.97;;;;;;;;;;4947606;28;20398;-48
2023/06/08 08:12:45;;;;;;;3.25;3.05;;;;;;;;;;4944567;28;20047;-49
2023/06/08 08:15:10;;;;;;;7.32;2.80;;;;;;;;;;4944201;28;20063;-52
2023/06/08 08:17:36;;;;;;;3.58;2.47;;;;;;;;;;4943657;28;20043;-51
2023/06/08 08:20:03;;;;;;;4.90;3.22;;;;;;;;;;4946938;28;20023;-54
2023/06/08 08:22:28;;;;;;;3.25;2.60;;;;;;;;;;4944557;28;20107;-51
2023/06/08 08:24:53;;;;;;;4.35;3.03;;;;;;;;;;4945235;28;20039;-50
2023/06/08 08:27:19;;;;;;;4.38;2.75;;;;;;;;;;4944354;28;20047;-47
2023/06/08 08:29:44;;;;;;;6.97;3.03;;;;;;;;;;4949840;28;20498;-50
2023/06/08 08:32:10;;;;;;;5.90;3.15;;;;;;;;;;4946123;28;20043;-47
2023/06/08 08:34:36;;;;;;;2.88;2.45;;;;;;;;;;4949956;28;20793;-51
2023/06/08 08:37:01;;;;;;;3.50;2.83;;;;;;;;;;4946909;28;20050;-49
2023/06/08 08:39:27;;;;;;;5.18;2.80;;;;;;;;;;4941532;28;20027;-51
2023/06/08 08:41:54;;;;;;;2.67;2.47;;;;;;;;;;4940044;28;20043;-48
2023/06/08 08:44:20;;;;;;;8.98;3.47;;;;;;;;;;4946292;28;20027;-47
2023/06/08 08:46:48;;;;;;;4.75;2.75;;;;;;;;;;4946513;28;20042;-49
2023/06/08 08:49:15;;;;;;;4.75;2.40;;;;;;;;;;4943299;28;20433;-48
2023/06/08 08:51:49;;;;;;;3.08;2.30;;;;;;;;;;4944207;28;20035;-53
2023/06/08 08:54:15;;;;;;;5.72;2.28;;;;;;;;;;4945389;28;20027;-49
2023/06/08 08:56:42;;;;;;;6.70;2.67;;;;;;;;;;4943964;28;20172;-49
2023/06/08 08:59:08;;;;;;;6.75;2.80;;;;;;;;;;4947999;28;20046;-52
2023/06/08 09:01:34;;;;;;;3.08;2.38;;;;;;;;;;4942752;28;20043;-54
2023/06/08 09:04:01;;;;;;;2.50;2.30;;;;;;;;;;4943511;28;20133;-49
2023/06/08 09:06:29;;;;;;;6.60;2.22;;;;;;;;;;4946537;28;20042;-48
2023/06/08 09:08:55;;;;;;;2.58;2.10;;;;;;;;;;4943609;28;20038;-48
2023/06/08 09:11:21;;;;;;;6.70;2.70;;;;;;;;;;4943546;28;20043;-49
2023/06/08 09:13:46;;;;;;;6.75;2.00;;;;;;;;;;4948732;28;20524;-48
2023/06/08 09:16:19;;;;;;;3.72;2.40;;;;;;;;;;4945028;28;20030;-52
2023/06/08 09:18:46;;;;;;;3.08;2.20;;;;;;;;;;4943978;28;20034;-49
2023/06/08 09:21:24;;;;;;;2.30;2.10;;;;;;;;;;4945934;28;20085;-53
2023/06/08 09:24:12;;;;;;;2.15;2.05;;;;;;;;;;4946817;28;20058;-49
2023/06/08 09:26:47;;;;;;;4.30;2.00;;;;;;;;;;4945301;28;20512;-51
2023/06/08 09:29:36;;;;;;;6.15;2.30;;;;;;;;;;4942661;28;20040;-49
2023/06/08 09:32:02;;;;;;;7.35;2.25;;;;;;;;;;4944434;28;20043;-47
2023/06/08 09:34:33;;;;;;;2.75;1.95;;;;;;;;;;4947535;28;20030;-49
2023/06/08 09:37:10;;;;;;;4.55;2.15;;;;;;;;;;4943373;28;20040;-49
2023/06/08 09:39:44;;;;;;;2.20;1.95;;;;;;;;;;4944619;28;20039;-50
2023/06/08 09:42:10;;;;;;;3.47;2.10;;;;;;;;;;4947182;28;20099;-49
2023/06/08 09:44:36;;;;;;;2.78;2.03;;;;;;;;;;4939657;28;20039;-48
2023/06/08 09:47:25;;;;;;;2.50;2.30;;;;;;;;;;4946884;28;20686;-49
2023/06/08 09:49:51;;;;;;;3.42;2.13;;;;;;;;;;4941775;28;20051;-50
2023/06/08 09:52:21;;;;;;;2.55;2.35;;;;;;;;;;4946618;28;20075;-46
2023/06/08 09:54:47;;;;;;;3.95;2.25;;;;;;;;;;4944638;28;20034;-50
2023/06/08 09:57:16;;;;;;;3.83;2.10;;;;;;;;;;4946550;28;20039;-51
2023/06/08 10:00:16;;;;;;;4.63;2.50;;;;;;;;;;4925842;29;20465;-47
2023/06/08 10:03:04;;;;;;;7.57;2.65;;;;;;;;;;4945463;28;20050;-48
2023/06/08 10:05:33;;;;;;;2.10;1.95;;;;;;;;;;4947311;28;20473;-48
2023/06/08 10:07:59;;;;;;;7.20;2.38;;;;;;;;;;4945545;28;20050;-50
2023/06/08 10:10:31;;;;;;;1.85;1.75;;;;;;;;;;4947830;28;20029;-47
2023/06/08 10:12:57;;;;;;;1.65;1.55;;;;;;;;;;4945383;28;20576;-50
2023/06/08 10:15:23;;;;;;;8.30;2.42;;;;;;;;;;4944465;28;20408;-51
2023/06/08 10:17:50;;;;;;;1.75;1.65;;;;;;;;;;4939362;28;20043;-49
2023/06/08 10:20:16;;;;;;;1.98;1.85;;;;;;;;;;4941279;28;20035;-53
2023/06/08 10:22:42;;;;;;;4.40;2.22;;;;;;;;;;4940928;28;20062;-48
2023/06/08 10:25:11;;;;;;;3.70;2.25;;;;;;;;;;4939216;28;20073;-51
2023/06/08 10:27:36;;;;;;;2.40;1.65;;;;;;;;;;4944935;28;20047;-54
2023/06/08 10:30:05;;;;;;;3.22;2.40;;;;;;;;;;4944897;28;20029;-50
2023/06/08 10:32:38;;;;;;;1.70;1.60;;;;;;;;;;4944839;28;20110;-54
2023/06/08 10:35:06;;;;;;;2.97;1.95;;;;;;;;;;4943002;28;20079;-54
2023/06/08 10:37:33;;;;;;;4.45;1.98;;;;;;;;;;4941618;28;20047;-51
2023/06/08 10:40:00;;;;;;;3.47;1.70;;;;;;;;;;4944929;28;20039;-49
2023/06/08 10:42:26;;;;;;;3.78;1.75;;;;;;;;;;4945367;28;21226;-50
2023/06/08 10:45:04;;;;;;;4.13;1.75;;;;;;;;;;4945917;28;20538;-49
2023/06/08 10:47:31;;;;;;;4.10;1.73;;;;;;;;;;4947178;28;20086;-46
2023/06/08 10:50:02;;;;;;;4.30;1.42;;;;;;;;;;4938133;28;20027;-47
2023/06/08 10:52:29;;;;;;;3.72;1.80;;;;;;;;;;4945924;28;20163;-47
2023/06/08 10:54:57;;;;;;;3.00;1.67;;;;;;;;;;4939878;28;20112;-49
2023/06/08 10:57:40;;;;;;;3.17;1.60;;;;;;;;;;4947031;28;20098;-46
2023/06/08 11:00:25;;;;;;;1.63;1.52;;;;;;;;;;4946263;28;20058;-47
2023/06/08 11:02:51;;;;;;;1.52;1.42;;;;;;;;;;4945017;28;20039;-51
2023/06/08 11:05:16;;;;;;;6.38;2.03;;;;;;;;;;4945208;28;20082;-49
2023/06/08 11:07:42;;;;;;;6.00;2.10;;;;;;;;;;4943240;28;20051;-47
2023/06/08 11:10:08;;;;;;;2.05;1.63;;;;;;;;;;4944491;28;20099;-47
2023/06/08 11:12:33;;;;;;;10.30;2.40;;;;;;;;;;4948216;28;20049;-48
2023/06/08 11:15:00;;;;;;;1.70;1.60;;;;;;;;;;4943311;28;20023;-50
2023/06/08 11:17:25;;;;;;;9.93;2.40;;;;;;;;;;4949437;28;20118;-47
2023/06/08 11:19:51;;;;;;;3.63;1.90;;;;;;;;;;4948712;28;20031;-49
2023/06/08 11:22:16;;;;;;;2.08;1.75;;;;;;;;;;4947118;28;20460;-51
2023/06/08 11:24:44;;;;;;;2.00;1.77;;;;;;;;;;4946610;28;20027;-48
2023/06/08 11:27:17;;;;;;;6.80;2.08;;;;;;;;;;4946708;28;20043;-50
2023/06/08 11:29:46;;;;;;;1.98;1.80;;;;;;;;;;4948671;28;20031;-50
2023/06/08 11:32:17;;;;;;;11.75;2.15;;;;;;;;;;4948585;28;20403;-52
2023/06/08 11:34:45;;;;;;;4.45;2.30;;;;;;;;;;4949086;28;20041;-52
2023/06/08 11:37:11;;;;;;;5.05;1.90;;;;;;;;;;4946283;28;20051;-52
2023/06/08 11:39:43;;;;;;;1.90;1.80;;;;;;;;;;4946244;28;20046;-48
2023/06/08 11:42:09;;;;;;;1.60;1.50;;;;;;;;;;4949948;28;21089;-47
2023/06/08 11:44:35;;;;;;;1.92;1.60;;;;;;;;;;4948536;28;20106;-49
2023/06/08 11:47:00;;;;;;;1.98;1.80;;;;;;;;;;4943431;28;20496;-50
2023/06/08 11:49:26;;;;;;;7.18;2.58;;;;;;;;;;4946908;28;20027;-49
2023/06/08 11:51:53;;;;;;;7.15;2.47;;;;;;;;;;4948231;28;20142;-47
2023/06/08 11:54:20;;;;;;;3.08;1.75;;;;;;;;;;4948421;28;20130;-46
2023/06/08 11:56:45;;;;;;;2.13;1.83;;;;;;;;;;4946404;28;20040;-50
2023/06/08 11:59:15;;;;;;;2.90;2.05;;;;;;;;;;4947775;28;20035;-48
2023/06/08 12:01:57;;;;;;;7.03;3.08;;;;;;;;;;4943687;28;20027;-54
2023/06/08 12:04:50;;;;;;;6.25;2.58;;;;;;;;;;4948136;28;20058;-53
2023/06/08 12:07:15;;;;;;;5.63;2.60;;;;;;;;;;4944629;28;20534;-47
2023/06/08 12:09:48;;;;;;;7.38;2.88;;;;;;;;;;4949087;28;20023;-47
2023/06/08 12:12:14;;;;;;;3.35;2.00;;;;;;;;;;4945389;28;20504;-46
2023/06/08 12:14:43;;;;;;;1.92;1.77;;;;;;;;;;4946587;28;20026;-49
2023/06/08 12:17:14;;;;;;;4.13;1.75;;;;;;;;;;4941978;28;20126;-50
2023/06/08 12:19:42;;;;;;;26.90;4.30;;;;;;;;;;4946883;28;20432;-47
2023/06/08 12:22:08;;;;;;;13.48;2.63;;;;;;;;;;4944598;28;20554;-53
2023/06/08 12:24:33;;;;;;;12.25;3.15;;;;;;;;;;4951697;28;20031;-50
2023/06/08 12:26:59;;;;;;;16.58;2.97;;;;;;;;;;4943040;28;20497;-52
2023/06/08 12:29:24;;;;;;;4.50;2.17;;;;;;;;;;4946928;28;20087;-54
2023/06/08 12:31:49;;;;;;;15.30;3.08;;;;;;;;;;4945636;28;20065;-52
2023/06/08 12:34:15;;;;;;;20.60;2.90;;;;;;;;;;4945781;28;20027;-48
2023/06/08 12:36:40;;;;;;;3.35;2.55;;;;;;;;;;4944563;28;20180;-50
2023/06/08 12:39:06;;;;;;;2.10;1.92;;;;;;;;;;4943737;28;20445;-48
2023/06/08 12:41:31;;;;;;;5.75;2.38;;;;;;;;;;4945582;28;20050;-47
2023/06/08 12:43:56;;;;;;;3.03;1.90;;;;;;;;;;4948138;28;20027;-48
2023/06/08 12:46:22;;;;;;;4.55;1.98;;;;;;;;;;4949948;28;20122;-50
2023/06/08 12:48:48;;;;;;;2.45;2.20;;;;;;;;;;4945027;28;20625;-47
2023/06/08 12:51:16;;;;;;;3.88;2.25;;;;;;;;;;4942997;28;20040;-53
2023/06/08 12:53:42;;;;;;;2.67;1.95;;;;;;;;;;4948266;28;20039;-45
2023/06/08 12:56:08;;;;;;;3.65;1.80;;;;;;;;;;4945508;28;20043;-51
2023/06/08 12:58:34;;;;;;;4.55;2.25;;;;;;;;;;4946913;28;20070;-44
2023/06/08 13:01:00;;;;;;;3.15;1.90;;;;;;;;;;4946309;28;20034;-46
2023/06/08 13:03:25;;;;;;;4.30;2.47;;;;;;;;;;4945043;28;20408;-45
2023/06/08 13:05:51;;;;;;;12.27;4.68;;;;;;;;;;4942021;28;20027;-51
2023/06/08 13:08:16;;;;;;;5.10;2.17;;;;;;;;;;4945352;28;20043;-50
2023/06/08 13:10:44;;;;;;;5.28;1.70;;;;;;;;;;4946214;28;20032;-44
2023/06/08 13:13:09;;;;;;;3.42;2.33;;;;;;;;;;4941844;28;20095;-46
2023/06/08 13:15:36;;;;;;;2.45;1.95;;;;;;;;;;4946599;28;20027;-44
2023/06/08 13:18:03;;;;;;;3.53;2.20;;;;;;;;;;4947969;28;20049;-44
2023/06/08 13:20:28;;;;;;;5.88;3.00;;;;;;;;;;4944263;28;20127;-45
2023/06/08 13:22:54;;;;;;;2.35;1.77;;;;;;;;;;4945882;28;20131;-47
2023/06/08 13:25:20;;;;;;;2.00;1.60;;;;;;;;;;4929433;29;20066;-49
2023/06/08 13:27:46;;;;;;;3.00;2.10;;;;;;;;;;4946197;28;20520;-44
2023/06/08 13:30:12;;;;;;;6.05;2.40;;;;;;;;;;4947906;28;20148;-44
2023/06/08 13:32:37;;;;;;;3.28;2.50;;;;;;;;;;4944426;28;20118;-51
2023/06/08 13:35:02;;;;;;;7.72;3.80;;;;;;;;;;4947351;28;20028;-49
2023/06/08 13:37:28;;;;;;;22.52;4.95;;;;;;;;;;4946746;28;20132;-44
2023/06/08 13:39:53;;;;;;;8.18;3.00;;;;;;;;;;4944697;28;20728;-49
2023/06/08 13:42:19;;;;;;;3.92;2.10;;;;;;;;;;4942695;28;20035;-48
2023/06/08 13:44:47;;;;;;;21.33;4.32;;;;;;;;;;4946858;28;20031;-51
2023/06/08 13:47:13;;;;;;;5.75;2.60;;;;;;;;;;4939298;28;20054;-44
2023/06/08 13:49:41;;;;;;;2.70;2.50;;;;;;;;;;4943770;28;20027;-44
2023/06/08 13:52:07;;;;;;;1.83;1.73;;;;;;;;;;4940288;28;20046;-50
2023/06/08 13:54:33;;;;;;;2.28;2.17;;;;;;;;;;4941964;28;20023;-50
2023/06/08 13:56:58;;;;;;;3.92;2.22;;;;;;;;;;4944270;28;20094;-47
2023/06/08 13:59:23;;;;;;;4.55;2.00;;;;;;;;;;4945641;28;20116;-49
2023/06/08 14:01:49;;;;;;;3.63;3.17;;;;;;;;;;4943719;28;20043;-48
2023/06/08 14:04:14;;;;;;;1.77;1.67;;;;;;;;;;4945909;28;20392;-51
2023/06/08 14:06:40;;;;;;;2.35;1.70;;;;;;;;;;4947645;28;20125;-52
2023/06/08 14:09:05;;;;;;;3.17;2.15;;;;;;;;;;4943622;28;20023;-52
2023/06/08 14:11:31;;;;;;;2.92;2.28;;;;;;;;;;4941697;28;20055;-50
2023/06/08 14:13:57;;;;;;;3.03;2.20;;;;;;;;;;4945780;28;20510;-48
2023/06/08 14:16:25;;;;;;;5.40;2.40;;;;;;;;;;4940207;28;20043;-53
2023/06/08 14:18:52;;;;;;;4.47;3.92;;;;;;;;;;4942849;28;20162;-47
2023/06/08 14:21:17;;;;;;;3.50;3.17;;;;;;;;;;4944133;28;20487;-53
2023/06/08 14:23:42;;;;;;;3.28;2.42;;;;;;;;;;4940286;28;20075;-51
2023/06/08 14:26:08;;;;;;;2.30;2.20;;;;;;;;;;4945230;28;20027;-47
2023/06/08 14:28:33;;;;;;;5.45;2.28;;;;;;;;;;4942851;28;20102;-49
2023/06/08 14:30:59;;;;;;;2.33;2.15;;;;;;;;;;4946355;28;20050;-48
2023/06/08 14:33:25;;;;;;;3.20;2.90;;;;;;;;;;4924899;29;20090;-52
2023/06/08 14:35:50;;;;;;;3.65;1.58;;;;;;;;;;4938110;28;20055;-47
2023/06/08 14:38:16;;;;;;;1.83;1.73;;;;;;;;;;4942375;28;20051;-52
2023/06/08 14:40:41;;;;;;;4.07;2.20;;;;;;;;;;4943774;28;20037;-49
2023/06/08 14:43:07;;;;;;;2.10;1.90;;;;;;;;;;4941268;28;20043;-49